sensor_id;sensor_type;location;lat;lon;timestamp;P1;durP1;ratioP1;P2;durP2;ratioP2
52380;SDS011;38310;52.796;6.942;2024-03-29T00:00:01;7.40;;;1.80;;
52380;SDS011;38310;52.796;6.942;2024-03-29T00:02:28;5.07;;;1.40;;
52380;SDS011;38310;52.796;6.942;2024-03-29T00:04:53;5.05;;;1.80;;
52380;SDS011;38310;52.796;6.942;2024-03-29T00:07:19;2.97;;;1.60;;
52380;SDS011;38310;52.796;6.942;2024-03-29T00:09:45;3.40;;;1.85;;
52380;SDS011;38310;52.796;6.942;2024-03-29T00:12:11;4.78;;;1.65;;
52380;SDS011;38310;52.796;6.942;2024-03-29T00:14:37;4.43;;;1.55;;
52380;SDS011;38310;52.796;6.942;2024-03-29T00:17:04;4.32;;;1.42;;
52380;SDS011;38310;52.796;6.942;2024-03-29T00:19:30;4.05;;;1.35;;
52380;SDS011;38310;52.796;6.942;2024-03-29T00:21:57;4.93;;;1.92;;
52380;SDS011;38310;52.796;6.942;2024-03-29T00:24:22;5.05;;;1.90;;
52380;SDS011;38310;52.796;6.942;2024-03-29T00:26:48;3.55;;;1.70;;
52380;SDS011;38310;52.796;6.942;2024-03-29T00:29:14;3.60;;;1.90;;
52380;SDS011;38310;52.796;6.942;2024-03-29T00:31:39;5.45;;;1.90;;
52380;SDS011;38310;52.796;6.942;2024-03-29T00:34:05;4.28;;;1.40;;
52380;SDS011;38310;52.796;6.942;2024-03-29T00:36:31;4.00;;;1.67;;
52380;SDS011;38310;52.796;6.942;2024-03-29T00:38:57;6.05;;;1.73;;
52380;SDS011;38310;52.796;6.942;2024-03-29T00:41:22;4.53;;;1.67;;
52380;SDS011;38310;52.796;6.942;2024-03-29T00:43:48;5.82;;;1.52;;
52380;SDS011;38310;52.796;6.942;2024-03-29T00:46:13;3.47;;;1.63;;
52380;SDS011;38310;52.796;6.942;2024-03-29T00:48:39;4.18;;;1.40;;
52380;SDS011;38310;52.796;6.942;2024-03-29T00:51:06;6.15;;;1.63;;
52380;SDS011;38310;52.796;6.942;2024-03-29T00:53:31;3.85;;;1.45;;
52380;SDS011;38310;52.796;6.942;2024-03-29T00:55:57;4.68;;;1.67;;
52380;SDS011;38310;52.796;6.942;2024-03-29T00:58:23;4.05;;;1.80;;
52380;SDS011;38310;52.796;6.942;2024-03-29T01:00:48;6.03;;;1.83;;
52380;SDS011;38310;52.796;6.942;2024-03-29T01:03:14;4.18;;;1.60;;
52380;SDS011;38310;52.796;6.942;2024-03-29T01:05:40;4.45;;;1.83;;
52380;SDS011;38310;52.796;6.942;2024-03-29T01:08:05;4.25;;;1.80;;
52380;SDS011;38310;52.796;6.942;2024-03-29T01:10:31;2.58;;;1.60;;
52380;SDS011;38310;52.796;6.942;2024-03-29T01:12:57;4.65;;;1.60;;
52380;SDS011;38310;52.796;6.942;2024-03-29T01:15:23;5.72;;;1.80;;
52380;SDS011;38310;52.796;6.942;2024-03-29T01:17:48;5.78;;;1.95;;
52380;SDS011;38310;52.796;6.942;2024-03-29T01:20:14;6.45;;;1.52;;
52380;SDS011;38310;52.796;6.942;2024-03-29T01:22:40;5.40;;;1.90;;
52380;SDS011;38310;52.796;6.942;2024-03-29T01:25:05;5.10;;;1.83;;
52380;SDS011;38310;52.796;6.942;2024-03-29T01:27:33;4.90;;;2.10;;
52380;SDS011;38310;52.796;6.942;2024-03-29T01:29:58;5.07;;;2.33;;
52380;SDS011;38310;52.796;6.942;2024-03-29T01:32:24;4.57;;;1.77;;
52380;SDS011;38310;52.796;6.942;2024-03-29T01:34:50;4.30;;;1.85;;
52380;SDS011;38310;52.796;6.942;2024-03-29T01:37:16;3.65;;;1.50;;
52380;SDS011;38310;52.796;6.942;2024-03-29T01:39:42;3.65;;;1.60;;
52380;SDS011;38310;52.796;6.942;2024-03-29T01:42:07;5.20;;;1.83;;
52380;SDS011;38310;52.796;6.942;2024-03-29T01:44:33;5.50;;;1.88;;
52380;SDS011;38310;52.796;6.942;2024-03-29T01:46:59;4.97;;;2.10;;
52380;SDS011;38310;52.796;6.942;2024-03-29T01:49:25;7.75;;;2.75;;
52380;SDS011;38310;52.796;6.942;2024-03-29T01:51:51;3.72;;;1.50;;
52380;SDS011;38310;52.796;6.942;2024-03-29T01:54:17;3.22;;;1.60;;
52380;SDS011;38310;52.796;6.942;2024-03-29T01:56:43;4.38;;;1.85;;
52380;SDS011;38310;52.796;6.942;2024-03-29T01:59:15;4.82;;;1.75;;
52380;SDS011;38310;52.796;6.942;2024-03-29T02:01:42;4.25;;;1.73;;
52380;SDS011;38310;52.796;6.942;2024-03-29T02:04:08;2.72;;;1.55;;
52380;SDS011;38310;52.796;6.942;2024-03-29T02:06:35;4.35;;;1.90;;
52380;SDS011;38310;52.796;6.942;2024-03-29T02:09:02;3.03;;;1.63;;
52380;SDS011;38310;52.796;6.942;2024-03-29T02:11:29;3.28;;;1.95;;
52380;SDS011;38310;52.796;6.942;2024-03-29T02:13:54;5.05;;;1.75;;
52380;SDS011;38310;52.796;6.942;2024-03-29T02:16:21;3.67;;;1.80;;
52380;SDS011;38310;52.796;6.942;2024-03-29T02:18:47;4.18;;;1.50;;
52380;SDS011;38310;52.796;6.942;2024-03-29T02:21:13;4.22;;;1.52;;
52380;SDS011;38310;52.796;6.942;2024-03-29T02:23:40;6.57;;;1.70;;
52380;SDS011;38310;52.796;6.942;2024-03-29T02:26:10;3.83;;;1.63;;
52380;SDS011;38310;52.796;6.942;2024-03-29T02:28:36;4.57;;;1.65;;
52380;SDS011;38310;52.796;6.942;2024-03-29T02:31:02;4.18;;;1.98;;
52380;SDS011;38310;52.796;6.942;2024-03-29T02:33:28;6.80;;;1.67;;
52380;SDS011;38310;52.796;6.942;2024-03-29T02:35:54;4.07;;;1.50;;
52380;SDS011;38310;52.796;6.942;2024-03-29T02:38:19;5.47;;;1.90;;
52380;SDS011;38310;52.796;6.942;2024-03-29T02:40:45;4.30;;;1.50;;
52380;SDS011;38310;52.796;6.942;2024-03-29T02:43:11;5.25;;;1.70;;
52380;SDS011;38310;52.796;6.942;2024-03-29T02:45:36;3.70;;;1.70;;
52380;SDS011;38310;52.796;6.942;2024-03-29T02:48:02;4.15;;;1.58;;
52380;SDS011;38310;52.796;6.942;2024-03-29T02:50:28;3.38;;;1.50;;
52380;SDS011;38310;52.796;6.942;2024-03-29T02:52:54;3.25;;;1.55;;
52380;SDS011;38310;52.796;6.942;2024-03-29T02:55:19;6.57;;;1.75;;
52380;SDS011;38310;52.796;6.942;2024-03-29T02:57:45;5.85;;;1.80;;
52380;SDS011;38310;52.796;6.942;2024-03-29T03:00:11;4.63;;;1.80;;
52380;SDS011;38310;52.796;6.942;2024-03-29T03:02:40;3.05;;;1.63;;
52380;SDS011;38310;52.796;6.942;2024-03-29T03:05:06;5.50;;;1.73;;
52380;SDS011;38310;52.796;6.942;2024-03-29T03:07:33;3.30;;;1.50;;
52380;SDS011;38310;52.796;6.942;2024-03-29T03:10:18;4.50;;;1.60;;
52380;SDS011;38310;52.796;6.942;2024-03-29T03:13:02;2.63;;;1.50;;
52380;SDS011;38310;52.796;6.942;2024-03-29T03:15:28;4.03;;;1.73;;
52380;SDS011;38310;52.796;6.942;2024-03-29T03:17:54;4.70;;;1.80;;
52380;SDS011;38310;52.796;6.942;2024-03-29T03:20:20;6.07;;;1.55;;
52380;SDS011;38310;52.796;6.942;2024-03-29T03:22:47;5.88;;;1.98;;
52380;SDS011;38310;52.796;6.942;2024-03-29T03:25:16;6.07;;;2.00;;
52380;SDS011;38310;52.796;6.942;2024-03-29T03:27:41;4.30;;;1.90;;
52380;SDS011;38310;52.796;6.942;2024-03-29T03:30:07;6.22;;;2.20;;
52380;SDS011;38310;52.796;6.942;2024-03-29T03:32:33;6.70;;;1.83;;
52380;SDS011;38310;52.796;6.942;2024-03-29T03:34:59;6.70;;;2.03;;
52380;SDS011;38310;52.796;6.942;2024-03-29T03:37:24;7.25;;;2.30;;
52380;SDS011;38310;52.796;6.942;2024-03-29T03:39:50;7.03;;;2.30;;
52380;SDS011;38310;52.796;6.942;2024-03-29T03:42:16;4.10;;;1.83;;
52380;SDS011;38310;52.796;6.942;2024-03-29T03:44:41;5.63;;;1.95;;
52380;SDS011;38310;52.796;6.942;2024-03-29T03:47:07;4.53;;;1.98;;
52380;SDS011;38310;52.796;6.942;2024-03-29T03:49:33;4.60;;;2.10;;
52380;SDS011;38310;52.796;6.942;2024-03-29T03:51:59;4.47;;;1.85;;
52380;SDS011;38310;52.796;6.942;2024-03-29T03:54:25;6.47;;;2.55;;
52380;SDS011;38310;52.796;6.942;2024-03-29T03:56:50;5.00;;;2.00;;
52380;SDS011;38310;52.796;6.942;2024-03-29T03:59:16;6.70;;;2.03;;
52380;SDS011;38310;52.796;6.942;2024-03-29T04:01:42;3.95;;;1.95;;
52380;SDS011;38310;52.796;6.942;2024-03-29T04:04:07;6.13;;;2.33;;
52380;SDS011;38310;52.796;6.942;2024-03-29T04:06:34;3.72;;;1.83;;
52380;SDS011;38310;52.796;6.942;2024-03-29T04:09:00;4.85;;;2.10;;
52380;SDS011;38310;52.796;6.942;2024-03-29T04:11:25;4.85;;;2.08;;
52380;SDS011;38310;52.796;6.942;2024-03-29T04:13:52;3.10;;;1.90;;
52380;SDS011;38310;52.796;6.942;2024-03-29T04:16:18;7.60;;;2.20;;
52380;SDS011;38310;52.796;6.942;2024-03-29T04:18:43;4.40;;;2.10;;
52380;SDS011;38310;52.796;6.942;2024-03-29T04:21:09;4.03;;;1.92;;
52380;SDS011;38310;52.796;6.942;2024-03-29T04:23:35;4.82;;;1.65;;
52380;SDS011;38310;52.796;6.942;2024-03-29T04:26:02;7.13;;;1.88;;
52380;SDS011;38310;52.796;6.942;2024-03-29T04:28:28;3.92;;;2.00;;
52380;SDS011;38310;52.796;6.942;2024-03-29T04:30:54;6.45;;;2.03;;
52380;SDS011;38310;52.796;6.942;2024-03-29T04:33:21;3.80;;;2.15;;
52380;SDS011;38310;52.796;6.942;2024-03-29T04:35:55;5.18;;;2.28;;
52380;SDS011;38310;52.796;6.942;2024-03-29T04:40:52;5.25;;;2.33;;
52380;SDS011;38310;52.796;6.942;2024-03-29T04:43:21;4.50;;;2.10;;
52380;SDS011;38310;52.796;6.942;2024-03-29T04:45:48;6.25;;;2.30;;
52380;SDS011;38310;52.796;6.942;2024-03-29T04:48:14;4.75;;;2.33;;
52380;SDS011;38310;52.796;6.942;2024-03-29T04:50:40;4.93;;;1.98;;
52380;SDS011;38310;52.796;6.942;2024-03-29T04:53:09;5.75;;;2.35;;
52380;SDS011;38310;52.796;6.942;2024-03-29T04:55:35;5.40;;;2.15;;
52380;SDS011;38310;52.796;6.942;2024-03-29T04:58:01;3.47;;;1.63;;
52380;SDS011;38310;52.796;6.942;2024-03-29T05:00:27;4.47;;;2.38;;
52380;SDS011;38310;52.796;6.942;2024-03-29T05:02:52;3.63;;;1.80;;
52380;SDS011;38310;52.796;6.942;2024-03-29T05:05:18;5.15;;;2.00;;
52380;SDS011;38310;52.796;6.942;2024-03-29T05:07:44;8.95;;;1.83;;
52380;SDS011;38310;52.796;6.942;2024-03-29T05:10:10;4.03;;;1.80;;
52380;SDS011;38310;52.796;6.942;2024-03-29T05:12:36;2.80;;;1.65;;
52380;SDS011;38310;52.796;6.942;2024-03-29T05:15:02;3.05;;;1.60;;
52380;SDS011;38310;52.796;6.942;2024-03-29T05:17:28;4.53;;;1.65;;
52380;SDS011;38310;52.796;6.942;2024-03-29T05:19:53;6.80;;;2.10;;
52380;SDS011;38310;52.796;6.942;2024-03-29T05:22:19;4.55;;;1.60;;
52380;SDS011;38310;52.796;6.942;2024-03-29T05:24:45;3.33;;;1.30;;
52380;SDS011;38310;52.796;6.942;2024-03-29T05:27:11;4.53;;;1.70;;
52380;SDS011;38310;52.796;6.942;2024-03-29T05:29:37;2.80;;;1.52;;
52380;SDS011;38310;52.796;6.942;2024-03-29T05:32:04;3.72;;;1.60;;
52380;SDS011;38310;52.796;6.942;2024-03-29T05:34:30;3.33;;;1.38;;
52380;SDS011;38310;52.796;6.942;2024-03-29T05:36:56;5.40;;;1.50;;
52380;SDS011;38310;52.796;6.942;2024-03-29T05:39:22;1.92;;;1.20;;
52380;SDS011;38310;52.796;6.942;2024-03-29T05:41:48;2.40;;;1.23;;
52380;SDS011;38310;52.796;6.942;2024-03-29T05:44:13;4.35;;;1.65;;
52380;SDS011;38310;52.796;6.942;2024-03-29T05:46:39;1.95;;;1.38;;
52380;SDS011;38310;52.796;6.942;2024-03-29T05:49:05;2.28;;;1.05;;
52380;SDS011;38310;52.796;6.942;2024-03-29T05:51:31;3.42;;;1.40;;
52380;SDS011;38310;52.796;6.942;2024-03-29T05:53:59;3.40;;;1.35;;
52380;SDS011;38310;52.796;6.942;2024-03-29T05:56:25;2.92;;;1.40;;
52380;SDS011;38310;52.796;6.942;2024-03-29T05:58:51;3.08;;;1.45;;
52380;SDS011;38310;52.796;6.942;2024-03-29T06:01:16;3.35;;;1.10;;
52380;SDS011;38310;52.796;6.942;2024-03-29T06:03:42;3.83;;;1.40;;
52380;SDS011;38310;52.796;6.942;2024-03-29T06:06:08;3.88;;;1.20;;
52380;SDS011;38310;52.796;6.942;2024-03-29T06:08:41;1.83;;;1.20;;
52380;SDS011;38310;52.796;6.942;2024-03-29T06:11:06;2.50;;;1.15;;
52380;SDS011;38310;52.796;6.942;2024-03-29T06:13:32;1.77;;;1.25;;
52380;SDS011;38310;52.796;6.942;2024-03-29T06:16:16;4.65;;;1.27;;
52380;SDS011;38310;52.796;6.942;2024-03-29T06:19:08;3.15;;;1.38;;
52380;SDS011;38310;52.796;6.942;2024-03-29T06:21:35;3.80;;;1.20;;
52380;SDS011;38310;52.796;6.942;2024-03-29T06:24:08;3.45;;;1.38;;
52380;SDS011;38310;52.796;6.942;2024-03-29T06:26:39;3.38;;;1.58;;
52380;SDS011;38310;52.796;6.942;2024-03-29T06:29:05;3.35;;;1.20;;
52380;SDS011;38310;52.796;6.942;2024-03-29T06:31:30;3.17;;;1.40;;
52380;SDS011;38310;52.796;6.942;2024-03-29T06:33:59;4.00;;;1.23;;
52380;SDS011;38310;52.796;6.942;2024-03-29T06:36:25;3.22;;;1.80;;
52380;SDS011;38310;52.796;6.942;2024-03-29T06:38:51;2.47;;;1.45;;
52380;SDS011;38310;52.796;6.942;2024-03-29T06:41:17;4.90;;;1.58;;
52380;SDS011;38310;52.796;6.942;2024-03-29T06:43:43;2.20;;;1.30;;
52380;SDS011;38310;52.796;6.942;2024-03-29T06:46:10;2.88;;;1.42;;
52380;SDS011;38310;52.796;6.942;2024-03-29T06:48:36;5.35;;;1.50;;
52380;SDS011;38310;52.796;6.942;2024-03-29T06:51:02;3.03;;;1.55;;
52380;SDS011;38310;52.796;6.942;2024-03-29T06:53:28;3.20;;;1.42;;
52380;SDS011;38310;52.796;6.942;2024-03-29T06:55:55;3.22;;;1.30;;
52380;SDS011;38310;52.796;6.942;2024-03-29T06:58:21;3.58;;;1.58;;
52380;SDS011;38310;52.796;6.942;2024-03-29T07:00:48;3.65;;;1.52;;
52380;SDS011;38310;52.796;6.942;2024-03-29T07:03:17;4.88;;;1.63;;
52380;SDS011;38310;52.796;6.942;2024-03-29T07:05:44;2.28;;;1.33;;
52380;SDS011;38310;52.796;6.942;2024-03-29T07:08:13;2.40;;;1.40;;
52380;SDS011;38310;52.796;6.942;2024-03-29T07:10:39;3.05;;;1.30;;
52380;SDS011;38310;52.796;6.942;2024-03-29T07:13:06;5.50;;;1.30;;
52380;SDS011;38310;52.796;6.942;2024-03-29T07:15:32;3.67;;;1.52;;
52380;SDS011;38310;52.796;6.942;2024-03-29T07:17:58;2.95;;;1.60;;
52380;SDS011;38310;52.796;6.942;2024-03-29T07:20:25;2.85;;;1.70;;
52380;SDS011;38310;52.796;6.942;2024-03-29T07:22:52;3.72;;;1.90;;
52380;SDS011;38310;52.796;6.942;2024-03-29T07:25:18;3.72;;;1.75;;
52380;SDS011;38310;52.796;6.942;2024-03-29T07:27:43;5.28;;;1.80;;
52380;SDS011;38310;52.796;6.942;2024-03-29T07:30:09;5.15;;;2.08;;
52380;SDS011;38310;52.796;6.942;2024-03-29T07:32:36;5.38;;;2.10;;
52380;SDS011;38310;52.796;6.942;2024-03-29T07:35:02;4.18;;;1.60;;
52380;SDS011;38310;52.796;6.942;2024-03-29T07:37:28;4.22;;;2.03;;
52380;SDS011;38310;52.796;6.942;2024-03-29T07:39:54;4.00;;;1.85;;
52380;SDS011;38310;52.796;6.942;2024-03-29T07:42:20;3.28;;;1.73;;
52380;SDS011;38310;52.796;6.942;2024-03-29T07:44:47;5.43;;;2.20;;
52380;SDS011;38310;52.796;6.942;2024-03-29T07:47:13;4.90;;;1.90;;
52380;SDS011;38310;52.796;6.942;2024-03-29T07:49:39;3.92;;;2.20;;
52380;SDS011;38310;52.796;6.942;2024-03-29T07:52:05;4.72;;;2.10;;
52380;SDS011;38310;52.796;6.942;2024-03-29T07:54:33;3.83;;;2.10;;
52380;SDS011;38310;52.796;6.942;2024-03-29T07:56:58;6.30;;;2.58;;
52380;SDS011;38310;52.796;6.942;2024-03-29T07:59:24;6.22;;;2.67;;
52380;SDS011;38310;52.796;6.942;2024-03-29T08:01:50;3.53;;;2.42;;
52380;SDS011;38310;52.796;6.942;2024-03-29T08:04:17;4.03;;;2.53;;
52380;SDS011;38310;52.796;6.942;2024-03-29T08:06:43;5.25;;;2.67;;
52380;SDS011;38310;52.796;6.942;2024-03-29T08:09:09;7.00;;;3.33;;
52380;SDS011;38310;52.796;6.942;2024-03-29T08:11:35;4.20;;;2.92;;
52380;SDS011;38310;52.796;6.942;2024-03-29T08:14:01;3.63;;;2.78;;
52380;SDS011;38310;52.796;6.942;2024-03-29T08:16:27;6.50;;;3.00;;
52380;SDS011;38310;52.796;6.942;2024-03-29T08:18:52;3.80;;;3.20;;
52380;SDS011;38310;52.796;6.942;2024-03-29T08:21:18;5.05;;;2.72;;
52380;SDS011;38310;52.796;6.942;2024-03-29T08:23:44;4.75;;;2.60;;
52380;SDS011;38310;52.796;6.942;2024-03-29T08:26:11;4.80;;;3.00;;
52380;SDS011;38310;52.796;6.942;2024-03-29T08:28:37;4.72;;;3.20;;
52380;SDS011;38310;52.796;6.942;2024-03-29T08:31:06;5.25;;;3.03;;
52380;SDS011;38310;52.796;6.942;2024-03-29T08:33:34;6.15;;;3.35;;
52380;SDS011;38310;52.796;6.942;2024-03-29T08:36:03;4.97;;;3.00;;
52380;SDS011;38310;52.796;6.942;2024-03-29T08:38:33;4.97;;;3.40;;
52380;SDS011;38310;52.796;6.942;2024-03-29T08:40:59;3.45;;;2.58;;
52380;SDS011;38310;52.796;6.942;2024-03-29T08:43:26;3.70;;;2.67;;
52380;SDS011;38310;52.796;6.942;2024-03-29T08:45:51;4.07;;;2.60;;
52380;SDS011;38310;52.796;6.942;2024-03-29T08:48:17;5.93;;;2.70;;
52380;SDS011;38310;52.796;6.942;2024-03-29T08:50:43;5.20;;;3.30;;
52380;SDS011;38310;52.796;6.942;2024-03-29T08:53:09;3.47;;;2.58;;
52380;SDS011;38310;52.796;6.942;2024-03-29T08:55:37;3.58;;;2.70;;
52380;SDS011;38310;52.796;6.942;2024-03-29T08:58:05;4.95;;;2.47;;
52380;SDS011;38310;52.796;6.942;2024-03-29T09:00:31;4.25;;;2.35;;
52380;SDS011;38310;52.796;6.942;2024-03-29T09:02:57;6.03;;;2.22;;
52380;SDS011;38310;52.796;6.942;2024-03-29T09:05:23;4.57;;;2.15;;
52380;SDS011;38310;52.796;6.942;2024-03-29T09:07:49;3.78;;;2.15;;
52380;SDS011;38310;52.796;6.942;2024-03-29T09:10:15;3.30;;;2.20;;
52380;SDS011;38310;52.796;6.942;2024-03-29T09:12:41;4.90;;;2.10;;
52380;SDS011;38310;52.796;6.942;2024-03-29T09:15:07;5.25;;;2.42;;
52380;SDS011;38310;52.796;6.942;2024-03-29T09:17:38;4.18;;;2.55;;
52380;SDS011;38310;52.796;6.942;2024-03-29T09:20:05;3.55;;;2.40;;
52380;SDS011;38310;52.796;6.942;2024-03-29T09:22:32;4.68;;;2.65;;
52380;SDS011;38310;52.796;6.942;2024-03-29T09:24:57;5.15;;;2.40;;
52380;SDS011;38310;52.796;6.942;2024-03-29T09:27:23;4.80;;;2.80;;
52380;SDS011;38310;52.796;6.942;2024-03-29T09:29:49;5.38;;;2.90;;
52380;SDS011;38310;52.796;6.942;2024-03-29T09:32:15;4.95;;;2.80;;
52380;SDS011;38310;52.796;6.942;2024-03-29T09:34:45;5.82;;;3.00;;
52380;SDS011;38310;52.796;6.942;2024-03-29T09:37:11;3.45;;;2.70;;
52380;SDS011;38310;52.796;6.942;2024-03-29T09:39:36;3.92;;;2.63;;
52380;SDS011;38310;52.796;6.942;2024-03-29T09:42:02;5.32;;;2.78;;
52380;SDS011;38310;52.796;6.942;2024-03-29T09:44:31;5.15;;;2.80;;
52380;SDS011;38310;52.796;6.942;2024-03-29T09:47:04;5.82;;;2.25;;
52380;SDS011;38310;52.796;6.942;2024-03-29T09:49:31;4.13;;;2.60;;
52380;SDS011;38310;52.796;6.942;2024-03-29T09:52:01;5.47;;;2.42;;
52380;SDS011;38310;52.796;6.942;2024-03-29T09:54:30;5.05;;;2.45;;
52380;SDS011;38310;52.796;6.942;2024-03-29T09:56:56;5.90;;;2.65;;
52380;SDS011;38310;52.796;6.942;2024-03-29T09:59:23;4.63;;;2.38;;
52380;SDS011;38310;52.796;6.942;2024-03-29T10:01:51;4.30;;;2.55;;
52380;SDS011;38310;52.796;6.942;2024-03-29T10:04:20;3.70;;;2.00;;
52380;SDS011;38310;52.796;6.942;2024-03-29T10:06:49;2.60;;;2.00;;
52380;SDS011;38310;52.796;6.942;2024-03-29T10:09:19;4.60;;;2.35;;
52380;SDS011;38310;52.796;6.942;2024-03-29T10:11:45;2.85;;;1.92;;
52380;SDS011;38310;52.796;6.942;2024-03-29T10:14:12;2.90;;;1.88;;
52380;SDS011;38310;52.796;6.942;2024-03-29T10:16:37;3.95;;;2.00;;
52380;SDS011;38310;52.796;6.942;2024-03-29T10:19:03;4.30;;;2.00;;
52380;SDS011;38310;52.796;6.942;2024-03-29T10:21:31;4.45;;;1.95;;
52380;SDS011;38310;52.796;6.942;2024-03-29T10:23:57;5.93;;;2.20;;
52380;SDS011;38310;52.796;6.942;2024-03-29T10:26:23;3.35;;;1.80;;
52380;SDS011;38310;52.796;6.942;2024-03-29T10:28:50;3.38;;;1.70;;
52380;SDS011;38310;52.796;6.942;2024-03-29T10:31:17;4.05;;;1.67;;
52380;SDS011;38310;52.796;6.942;2024-03-29T10:33:44;5.28;;;1.60;;
52380;SDS011;38310;52.796;6.942;2024-03-29T10:36:10;4.15;;;1.70;;
52380;SDS011;38310;52.796;6.942;2024-03-29T10:38:39;3.67;;;1.80;;
52380;SDS011;38310;52.796;6.942;2024-03-29T10:41:05;3.70;;;1.73;;
52380;SDS011;38310;52.796;6.942;2024-03-29T10:43:32;2.70;;;2.10;;
52380;SDS011;38310;52.796;6.942;2024-03-29T10:46:02;4.47;;;2.20;;
52380;SDS011;38310;52.796;6.942;2024-03-29T10:48:30;6.90;;;2.63;;
52380;SDS011;38310;52.796;6.942;2024-03-29T10:51:01;4.78;;;2.75;;
52380;SDS011;38310;52.796;6.942;2024-03-29T10:53:27;5.35;;;3.30;;
52380;SDS011;38310;52.796;6.942;2024-03-29T10:55:58;6.93;;;3.25;;
52380;SDS011;38310;52.796;6.942;2024-03-29T10:58:31;5.85;;;4.03;;
52380;SDS011;38310;52.796;6.942;2024-03-29T11:01:01;4.55;;;3.88;;
52380;SDS011;38310;52.796;6.942;2024-03-29T11:03:40;5.47;;;3.80;;
52380;SDS011;38310;52.796;6.942;2024-03-29T11:06:14;7.13;;;3.67;;
52380;SDS011;38310;52.796;6.942;2024-03-29T11:08:41;6.82;;;4.13;;
52380;SDS011;38310;52.796;6.942;2024-03-29T11:11:12;7.50;;;3.90;;
52380;SDS011;38310;52.796;6.942;2024-03-29T11:13:47;5.80;;;4.40;;
52380;SDS011;38310;52.796;6.942;2024-03-29T11:16:17;6.85;;;4.25;;
52380;SDS011;38310;52.796;6.942;2024-03-29T11:18:45;5.18;;;4.15;;
52380;SDS011;38310;52.796;6.942;2024-03-29T11:21:12;4.88;;;4.05;;
52380;SDS011;38310;52.796;6.942;2024-03-29T11:23:47;4.55;;;3.90;;
52380;SDS011;38310;52.796;6.942;2024-03-29T11:26:14;6.28;;;3.63;;
52380;SDS011;38310;52.796;6.942;2024-03-29T11:28:40;5.72;;;3.75;;
52380;SDS011;38310;52.796;6.942;2024-03-29T11:31:08;4.82;;;3.20;;
52380;SDS011;38310;52.796;6.942;2024-03-29T11:33:35;4.90;;;3.42;;
52380;SDS011;38310;52.796;6.942;2024-03-29T11:36:11;5.57;;;3.57;;
52380;SDS011;38310;52.796;6.942;2024-03-29T11:38:40;5.82;;;3.47;;
52380;SDS011;38310;52.796;6.942;2024-03-29T11:41:45;4.03;;;3.20;;
52380;SDS011;38310;52.796;6.942;2024-03-29T11:44:00;3.95;;;3.08;;
52380;SDS011;38310;52.796;6.942;2024-03-29T11:46:25;4.78;;;3.42;;
52380;SDS011;38310;52.796;6.942;2024-03-29T11:48:51;5.03;;;3.15;;
52380;SDS011;38310;52.796;6.942;2024-03-29T11:51:18;5.22;;;3.05;;
52380;SDS011;38310;52.796;6.942;2024-03-29T11:53:49;7.55;;;3.25;;
52380;SDS011;38310;52.796;6.942;2024-03-29T11:56:20;4.88;;;3.42;;
52380;SDS011;38310;52.796;6.942;2024-03-29T11:58:47;3.88;;;3.10;;
52380;SDS011;38310;52.796;6.942;2024-03-29T12:01:14;4.82;;;2.92;;
52380;SDS011;38310;52.796;6.942;2024-03-29T12:03:40;3.75;;;2.65;;
52380;SDS011;38310;52.796;6.942;2024-03-29T12:06:07;7.35;;;3.13;;
52380;SDS011;38310;52.796;6.942;2024-03-29T12:08:34;3.15;;;2.83;;
52380;SDS011;38310;52.796;6.942;2024-03-29T12:11:01;3.92;;;3.00;;
52380;SDS011;38310;52.796;6.942;2024-03-29T12:13:28;2.85;;;2.50;;
52380;SDS011;38310;52.796;6.942;2024-03-29T12:15:55;4.97;;;2.75;;
52380;SDS011;38310;52.796;6.942;2024-03-29T12:18:21;2.85;;;2.55;;
52380;SDS011;38310;52.796;6.942;2024-03-29T12:20:48;4.18;;;2.63;;
52380;SDS011;38310;52.796;6.942;2024-03-29T12:23:19;3.95;;;3.10;;
52380;SDS011;38310;52.796;6.942;2024-03-29T12:25:46;4.15;;;3.08;;
52380;SDS011;38310;52.796;6.942;2024-03-29T12:28:14;3.80;;;3.30;;
52380;SDS011;38310;52.796;6.942;2024-03-29T12:30:47;4.13;;;3.10;;
52380;SDS011;38310;52.796;6.942;2024-03-29T12:33:17;3.43;;;3.13;;
52380;SDS011;38310;52.796;6.942;2024-03-29T12:35:48;5.85;;;3.30;;
52380;SDS011;38310;52.796;6.942;2024-03-29T12:38:16;4.25;;;3.78;;
52380;SDS011;38310;52.796;6.942;2024-03-29T12:40:43;4.13;;;3.55;;
52380;SDS011;38310;52.796;6.942;2024-03-29T12:43:10;4.63;;;3.38;;
52380;SDS011;38310;52.796;6.942;2024-03-29T12:45:38;3.97;;;3.20;;
52380;SDS011;38310;52.796;6.942;2024-03-29T12:48:11;6.10;;;3.85;;
52380;SDS011;38310;52.796;6.942;2024-03-29T12:53:09;4.57;;;3.15;;
52380;SDS011;38310;52.796;6.942;2024-03-29T12:55:36;5.22;;;3.80;;
52380;SDS011;38310;52.796;6.942;2024-03-29T12:58:07;8.18;;;4.72;;
52380;SDS011;38310;52.796;6.942;2024-03-29T13:00:36;4.97;;;4.20;;
52380;SDS011;38310;52.796;6.942;2024-03-29T13:03:02;4.55;;;4.15;;
52380;SDS011;38310;52.796;6.942;2024-03-29T13:05:28;4.25;;;3.60;;
52380;SDS011;38310;52.796;6.942;2024-03-29T13:08:03;6.28;;;3.42;;
52380;SDS011;38310;52.796;6.942;2024-03-29T13:10:29;4.60;;;3.20;;
52380;SDS011;38310;52.796;6.942;2024-03-29T13:12:55;4.07;;;3.03;;
52380;SDS011;38310;52.796;6.942;2024-03-29T13:15:22;4.28;;;3.13;;
52380;SDS011;38310;52.796;6.942;2024-03-29T13:17:50;3.78;;;3.30;;
52380;SDS011;38310;52.796;6.942;2024-03-29T13:20:17;4.85;;;3.40;;
52380;SDS011;38310;52.796;6.942;2024-03-29T13:22:44;5.05;;;4.53;;
52380;SDS011;38310;52.796;6.942;2024-03-29T13:25:13;4.63;;;3.60;;
52380;SDS011;38310;52.796;6.942;2024-03-29T13:27:39;5.07;;;3.50;;
52380;SDS011;38310;52.796;6.942;2024-03-29T13:30:06;4.07;;;3.65;;
52380;SDS011;38310;52.796;6.942;2024-03-29T13:35:05;3.60;;;3.30;;
52380;SDS011;38310;52.796;6.942;2024-03-29T13:37:34;5.75;;;3.42;;
52380;SDS011;38310;52.796;6.942;2024-03-29T13:40:02;3.42;;;3.00;;
52380;SDS011;38310;52.796;6.942;2024-03-29T13:42:29;3.42;;;3.13;;
52380;SDS011;38310;52.796;6.942;2024-03-29T13:44:56;4.47;;;3.60;;
52380;SDS011;38310;52.796;6.942;2024-03-29T13:47:22;3.10;;;2.80;;
52380;SDS011;38310;52.796;6.942;2024-03-29T13:49:48;3.10;;;2.80;;
52380;SDS011;38310;52.796;6.942;2024-03-29T13:52:17;3.40;;;2.90;;
52380;SDS011;38310;52.796;6.942;2024-03-29T13:54:44;3.33;;;2.60;;
52380;SDS011;38310;52.796;6.942;2024-03-29T13:57:12;3.17;;;2.30;;
52380;SDS011;38310;52.796;6.942;2024-03-29T13:59:38;4.35;;;2.33;;
52380;SDS011;38310;52.796;6.942;2024-03-29T14:02:04;2.75;;;2.10;;
52380;SDS011;38310;52.796;6.942;2024-03-29T14:04:30;3.55;;;2.33;;
52380;SDS011;38310;52.796;6.942;2024-03-29T14:06:56;3.10;;;1.98;;
52380;SDS011;38310;52.796;6.942;2024-03-29T14:09:22;4.65;;;1.90;;
52380;SDS011;38310;52.796;6.942;2024-03-29T14:11:47;2.58;;;1.95;;
52380;SDS011;38310;52.796;6.942;2024-03-29T14:14:13;2.50;;;1.77;;
52380;SDS011;38310;52.796;6.942;2024-03-29T14:16:39;1.95;;;1.40;;
52380;SDS011;38310;52.796;6.942;2024-03-29T14:19:04;3.00;;;1.90;;
52380;SDS011;38310;52.796;6.942;2024-03-29T14:21:30;4.72;;;1.90;;
52380;SDS011;38310;52.796;6.942;2024-03-29T14:23:57;2.45;;;1.55;;
52380;SDS011;38310;52.796;6.942;2024-03-29T14:26:23;2.75;;;1.83;;
52380;SDS011;38310;52.796;6.942;2024-03-29T14:28:49;2.50;;;1.65;;
52380;SDS011;38310;52.796;6.942;2024-03-29T14:31:15;2.28;;;1.90;;
52380;SDS011;38310;52.796;6.942;2024-03-29T14:33:41;2.45;;;1.75;;
52380;SDS011;38310;52.796;6.942;2024-03-29T14:36:07;2.55;;;1.80;;
52380;SDS011;38310;52.796;6.942;2024-03-29T14:38:33;4.22;;;2.20;;
52380;SDS011;38310;52.796;6.942;2024-03-29T14:40:58;6.15;;;1.70;;
52380;SDS011;38310;52.796;6.942;2024-03-29T14:43:24;4.68;;;1.88;;
52380;SDS011;38310;52.796;6.942;2024-03-29T14:45:50;2.67;;;1.83;;
52380;SDS011;38310;52.796;6.942;2024-03-29T14:48:17;3.17;;;1.83;;
52380;SDS011;38310;52.796;6.942;2024-03-29T14:50:43;2.33;;;1.60;;
52380;SDS011;38310;52.796;6.942;2024-03-29T14:53:09;4.38;;;1.45;;